Terminal Aerodrome Forecast
Issued by NWS

Home | Current Version | Previous Version | Graphics & Text | Print | Product List | Glossary On
Versions: 1 2 3 4 5 6 7 8 9 10 11 12 13 14
000
FTUS42 KMHX 260500
TAFPGV
TAF
KPGV 260533Z 2606/2706 03010G15KT 4SM -RA BR OVC003
     FM261200 02012G18KT 4SM -RA OVC005
     FM261800 33010G15KT P6SM VCSH SCT007 OVC020
     FM262300 32004KT P6SM BKN050
      AMD LTD TO CLD VIS AND WIND=

USA.gov is the U.S. government's official web portal to all federal, state and local government web resources and services.